createdAt,value
2017-08-13T00:01:05.515Z,4.50
2017-08-13T00:03:33.838Z,4.90
2017-08-13T00:06:02.145Z,5.20
2017-08-13T00:08:30.703Z,4.17
2017-08-13T00:10:59.024Z,3.70
2017-08-13T00:13:27.393Z,5.03
2017-08-13T00:15:55.702Z,3.50
2017-08-13T00:18:24.026Z,6.40
2017-08-13T00:20:52.363Z,4.43
2017-08-13T00:23:21.759Z,4.37
2017-08-13T00:25:50.060Z,3.93
2017-08-13T00:28:22.941Z,3.23
2017-08-13T00:30:51.230Z,3.60
2017-08-13T00:33:19.526Z,4.20
2017-08-13T00:35:47.849Z,4.40
2017-08-13T00:38:16.162Z,3.93
2017-08-13T00:40:44.459Z,3.77
2017-08-13T00:43:12.781Z,3.90
2017-08-13T00:45:41.078Z,3.87
2017-08-13T00:48:09.393Z,4.83
2017-08-13T00:50:37.734Z,4.63
2017-08-13T00:53:06.063Z,5.20
2017-08-13T00:55:34.372Z,5.30
2017-08-13T00:58:04.268Z,3.90
2017-08-13T01:00:32.604Z,4.03
2017-08-13T01:03:00.929Z,3.80
2017-08-13T01:05:29.215Z,2.90
2017-08-13T01:07:57.552Z,3.57
2017-08-13T01:10:25.859Z,3.40
2017-08-13T01:12:54.189Z,2.87
2017-08-13T01:15:22.525Z,2.87
2017-08-13T01:17:50.874Z,2.67
2017-08-13T01:20:19.178Z,2.40
2017-08-13T01:22:47.518Z,2.23
2017-08-13T01:25:15.813Z,3.70
2017-08-13T01:27:44.147Z,2.90
2017-08-13T01:30:12.486Z,2.80
2017-08-13T01:32:40.800Z,2.73
2017-08-13T01:35:09.144Z,3.30
2017-08-13T01:37:37.452Z,5.30
2017-08-13T01:40:05.760Z,4.87
2017-08-13T01:42:34.081Z,6.07
2017-08-13T01:45:05.440Z,7.57
2017-08-13T01:47:34.544Z,6.50
2017-08-13T01:50:02.853Z,7.27
2017-08-13T01:52:33.768Z,8.60
2017-08-13T01:55:02.112Z,9.30
2017-08-13T01:57:30.422Z,10.93
2017-08-13T01:59:58.832Z,10.40
2017-08-13T02:02:27.174Z,10.67
2017-08-13T02:04:55.477Z,11.20
2017-08-13T02:07:23.786Z,11.93
2017-08-13T02:09:52.126Z,13.30
2017-08-13T02:12:20.593Z,14.10
2017-08-13T02:14:49.067Z,13.60
2017-08-13T02:17:17.409Z,12.20
2017-08-13T02:19:45.746Z,15.27
2017-08-13T02:22:14.057Z,13.70
2017-08-13T02:24:42.402Z,15.20
2017-08-13T02:27:10.743Z,16.50
2017-08-13T02:29:39.857Z,13.83
2017-08-13T02:32:08.933Z,17.73
2017-08-13T02:34:37.249Z,16.20
2017-08-13T02:37:07.149Z,16.10
2017-08-13T02:39:35.493Z,16.03
2017-08-13T02:42:03.825Z,18.20
2017-08-13T02:44:32.132Z,19.13
2017-08-13T02:47:00.446Z,19.87
2017-08-13T02:49:28.789Z,18.37
2017-08-13T02:51:57.105Z,18.30
2017-08-13T02:54:25.443Z,19.60
2017-08-13T02:56:53.906Z,20.30
2017-08-13T02:59:22.217Z,20.80
2017-08-13T03:01:50.553Z,24.30
2017-08-13T03:04:18.856Z,24.20
2017-08-13T03:06:47.161Z,23.90
2017-08-13T03:09:16.265Z,23.60
2017-08-13T03:11:45.369Z,21.93
2017-08-13T03:14:13.679Z,23.50
2017-08-13T03:16:41.997Z,20.90
2017-08-13T03:19:10.343Z,17.60
2017-08-13T03:21:38.652Z,21.80
2017-08-13T03:24:07.304Z,19.40
2017-08-13T03:26:35.644Z,17.70
2017-08-13T03:29:04.002Z,16.03
2017-08-13T03:31:32.993Z,16.87
2017-08-13T03:34:01.294Z,16.00
2017-08-13T03:36:30.825Z,16.33
2017-08-13T03:38:59.916Z,16.50
2017-08-13T03:41:29.256Z,18.17
2017-08-13T03:43:57.568Z,19.53
2017-08-13T03:46:25.916Z,17.67
2017-08-13T03:48:55.008Z,17.00
2017-08-13T03:51:24.101Z,18.50
2017-08-13T03:53:52.452Z,19.90
2017-08-13T03:56:20.775Z,18.33
2017-08-13T03:58:49.080Z,21.53
2017-08-13T04:01:17.427Z,21.70
2017-08-13T04:03:45.765Z,21.20
2017-08-13T04:06:15.162Z,20.70
2017-08-13T04:08:43.510Z,23.13
2017-08-13T04:11:11.819Z,20.83
2017-08-13T04:13:40.653Z,20.47
2017-08-13T04:16:08.957Z,24.27
2017-08-13T04:18:38.066Z,21.17
2017-08-13T04:21:07.164Z,17.30
2017-08-13T04:23:35.501Z,28.80
2017-08-13T04:26:03.844Z,23.90
2017-08-13T04:28:32.157Z,20.00
2017-08-13T04:31:01.222Z,19.37
2017-08-13T04:33:29.551Z,16.20
2017-08-13T04:35:57.875Z,17.20
2017-08-13T04:38:26.213Z,19.33
2017-08-13T04:40:54.517Z,18.13
2017-08-13T04:43:23.616Z,17.97
2017-08-13T04:45:52.690Z,18.67
2017-08-13T04:48:21.006Z,20.37
2017-08-13T04:50:49.346Z,20.90
2017-08-13T04:53:17.649Z,20.00
2017-08-13T04:55:45.980Z,15.73
2017-08-13T04:58:14.317Z,15.10
2017-08-13T05:00:42.633Z,15.70
2017-08-13T05:03:10.986Z,17.30
2017-08-13T05:05:41.797Z,15.13
2017-08-13T05:08:10.110Z,16.37
2017-08-13T05:10:38.458Z,13.43
2017-08-13T05:13:06.796Z,12.10
2017-08-13T05:15:35.132Z,13.93
2017-08-13T05:18:03.472Z,16.43
2017-08-13T05:20:35.363Z,15.30
2017-08-13T05:23:04.864Z,16.13
2017-08-13T05:25:33.176Z,15.03
2017-08-13T05:28:01.474Z,16.83
2017-08-13T05:30:29.818Z,17.00
2017-08-13T05:32:58.892Z,18.47
2017-08-13T05:35:27.206Z,18.87
2017-08-13T05:37:56.313Z,16.83
2017-08-13T05:40:25.384Z,17.27
2017-08-13T05:42:53.733Z,17.50
2017-08-13T05:45:22.037Z,17.40
2017-08-13T05:47:50.372Z,18.70
2017-08-13T05:50:18.681Z,19.50
2017-08-13T05:52:47.022Z,18.30
2017-08-13T05:55:15.360Z,18.07
2017-08-13T05:57:44.462Z,18.60
2017-08-13T06:00:12.764Z,16.67
2017-08-13T06:02:41.837Z,17.50
2017-08-13T06:05:10.182Z,16.07
2017-08-13T06:07:38.526Z,16.30
2017-08-13T06:10:06.833Z,15.30
2017-08-13T06:12:35.945Z,14.10
2017-08-13T06:15:05.046Z,16.30
2017-08-13T06:17:34.399Z,16.50
2017-08-13T06:20:02.697Z,17.00
2017-08-13T06:22:31.377Z,18.47
2017-08-13T06:24:59.686Z,18.70
2017-08-13T06:27:27.995Z,20.47
2017-08-13T06:29:56.331Z,18.30
2017-08-13T06:32:24.672Z,17.87
2017-08-13T06:34:52.983Z,18.47
2017-08-13T06:37:21.293Z,22.30
2017-08-13T06:39:50.489Z,22.10
2017-08-13T06:42:19.613Z,20.70
2017-08-13T06:44:49.272Z,23.47
2017-08-13T06:47:17.581Z,22.60
2017-08-13T06:49:45.921Z,19.77
2017-08-13T06:52:14.268Z,20.33
2017-08-13T06:54:42.582Z,22.30
2017-08-13T06:57:10.929Z,20.20
2017-08-13T06:59:39.242Z,23.10
2017-08-13T07:02:07.578Z,22.67
2017-08-13T07:04:35.887Z,24.77
2017-08-13T07:07:04.338Z,21.80
2017-08-13T07:09:33.423Z,20.40
2017-08-13T07:12:01.771Z,21.80
2017-08-13T07:14:30.072Z,21.83
2017-08-13T07:16:59.602Z,18.43
2017-08-13T07:19:27.944Z,19.00
2017-08-13T07:21:56.265Z,21.60
2017-08-13T07:24:24.574Z,23.87
2017-08-13T07:26:52.905Z,23.67
2017-08-13T07:29:21.217Z,23.17
2017-08-13T07:31:49.566Z,20.00
2017-08-13T07:34:17.869Z,21.10
2017-08-13T07:36:46.934Z,20.30
2017-08-13T07:39:15.722Z,22.47
2017-08-13T07:41:44.061Z,20.80
2017-08-13T07:44:13.169Z,20.93
2017-08-13T07:46:41.512Z,19.57
2017-08-13T07:49:09.834Z,20.43
2017-08-13T07:51:38.135Z,17.70
2017-08-13T07:54:07.239Z,17.90
2017-08-13T07:56:36.953Z,19.00
2017-08-13T07:59:05.255Z,19.27
2017-08-13T08:01:34.363Z,21.27
2017-08-13T08:04:02.695Z,20.80
2017-08-13T08:06:31.041Z,19.50
2017-08-13T08:08:59.371Z,19.10
2017-08-13T08:11:27.707Z,18.30
2017-08-13T08:13:56.086Z,19.20
2017-08-13T08:16:24.429Z,20.53
2017-08-13T08:18:52.770Z,16.57
2017-08-13T08:21:21.106Z,14.40
2017-08-13T08:23:49.446Z,16.70
2017-08-13T08:26:17.768Z,12.63
2017-08-13T08:28:46.109Z,12.50
2017-08-13T08:31:14.424Z,13.73
2017-08-13T08:33:42.770Z,14.73
2017-08-13T08:36:11.076Z,13.90
2017-08-13T08:38:39.437Z,14.40
2017-08-13T08:41:07.747Z,10.97
2017-08-13T08:43:36.051Z,8.00
2017-08-13T08:49:04.011Z,6.60
2017-08-13T08:51:32.337Z,7.07
2017-08-13T08:54:00.667Z,7.47
2017-08-13T08:56:28.971Z,6.93
2017-08-13T08:58:57.302Z,5.80
2017-08-13T09:01:25.610Z,5.40
2017-08-13T09:03:53.913Z,5.40
2017-08-13T09:06:22.237Z,5.70
2017-08-13T09:08:50.572Z,5.60
2017-08-13T09:11:18.870Z,6.97
2017-08-13T09:13:47.169Z,6.10
2017-08-13T09:16:15.618Z,7.07
2017-08-13T09:18:43.922Z,7.50
2017-08-13T09:21:12.256Z,9.37
2017-08-13T09:23:40.560Z,8.50
2017-08-13T09:26:08.901Z,7.33
2017-08-13T09:28:37.201Z,8.07
2017-08-13T09:31:05.498Z,7.80
2017-08-13T09:33:33.828Z,6.50
2017-08-13T09:36:02.129Z,5.13
2017-08-13T09:38:30.424Z,5.23
2017-08-13T09:40:58.748Z,4.40
2017-08-13T09:43:27.069Z,5.70
2017-08-13T09:45:55.374Z,7.33
2017-08-13T09:48:23.707Z,5.30
2017-08-13T09:50:52.001Z,4.60
2017-08-13T09:53:20.302Z,4.53
2017-08-13T09:55:48.634Z,4.60
2017-08-13T09:58:16.936Z,4.70
2017-08-13T10:00:45.276Z,5.90
2017-08-13T10:03:13.613Z,5.43
2017-08-13T10:05:41.958Z,4.80
2017-08-13T10:08:10.274Z,4.10
2017-08-13T10:10:38.564Z,3.80
2017-08-13T10:13:07.245Z,4.27
2017-08-13T10:15:35.540Z,3.63
2017-08-13T10:18:06.433Z,4.10
2017-08-13T10:20:34.761Z,4.30
2017-08-13T10:23:05.396Z,3.27
2017-08-13T10:25:34.689Z,4.13
2017-08-13T10:28:02.987Z,4.20
2017-08-13T10:30:31.884Z,3.93
2017-08-13T10:33:00.208Z,3.00
2017-08-13T10:35:28.537Z,3.90
2017-08-13T10:37:56.857Z,3.70
2017-08-13T10:40:30.305Z,3.40
2017-08-13T10:42:59.360Z,3.50
2017-08-13T10:45:27.925Z,4.00
2017-08-13T10:47:56.259Z,3.80
2017-08-13T10:50:24.597Z,4.03
2017-08-13T10:52:52.894Z,3.33
2017-08-13T10:55:21.223Z,2.87
2017-08-13T10:57:49.544Z,3.10
2017-08-13T11:00:17.833Z,3.53
2017-08-13T11:02:46.165Z,4.10
2017-08-13T11:05:14.457Z,3.30
2017-08-13T11:07:42.788Z,3.07
2017-08-13T11:10:11.100Z,3.70
2017-08-13T11:12:39.417Z,3.20
2017-08-13T11:15:07.778Z,3.40
2017-08-13T11:17:36.121Z,3.43
2017-08-13T11:20:04.412Z,3.10
2017-08-13T11:22:32.715Z,4.20
2017-08-13T11:25:01.188Z,3.10
2017-08-13T11:27:29.488Z,3.80
2017-08-13T11:29:57.790Z,4.43
2017-08-13T11:32:26.131Z,4.00
2017-08-13T11:34:54.468Z,4.03
2017-08-13T11:37:22.758Z,3.60
2017-08-13T11:39:51.097Z,3.60
2017-08-13T11:42:19.388Z,3.33
2017-08-13T11:44:47.689Z,3.07
2017-08-13T11:47:16.026Z,3.43
2017-08-13T11:49:44.323Z,3.43
2017-08-13T11:52:12.841Z,3.23
2017-08-13T11:54:41.164Z,3.27
2017-08-13T11:57:15.792Z,3.57
2017-08-13T11:59:44.119Z,3.10
2017-08-13T12:02:12.420Z,2.67
2017-08-13T12:04:40.736Z,3.10
2017-08-13T12:07:09.144Z,2.77
2017-08-13T12:09:37.543Z,3.50
2017-08-13T12:12:05.844Z,3.17
2017-08-13T12:14:38.657Z,3.97
2017-08-13T12:17:06.945Z,3.23
2017-08-13T12:19:35.281Z,2.53
2017-08-13T12:22:08.723Z,2.60
2017-08-13T12:24:37.058Z,2.90
2017-08-13T12:27:06.830Z,2.13
2017-08-13T12:29:35.131Z,2.87
2017-08-13T12:32:03.438Z,2.20
2017-08-13T12:34:31.762Z,2.20
2017-08-13T12:37:00.088Z,1.67
2017-08-13T12:39:28.431Z,2.37
2017-08-13T12:41:56.882Z,2.03
2017-08-13T12:44:25.194Z,2.13
2017-08-13T12:46:53.528Z,1.50
2017-08-13T12:49:21.825Z,2.10
2017-08-13T12:51:50.149Z,2.30
2017-08-13T12:54:18.468Z,1.83
2017-08-13T12:56:46.768Z,2.13
2017-08-13T12:59:15.103Z,1.70
2017-08-13T13:01:43.409Z,1.67
2017-08-13T13:04:11.707Z,2.00
2017-08-13T13:06:41.170Z,1.60
2017-08-13T13:09:10.843Z,1.50
2017-08-13T13:11:39.158Z,1.33
2017-08-13T13:14:07.471Z,2.50
2017-08-13T13:16:35.793Z,1.60
2017-08-13T13:19:04.127Z,1.73
2017-08-13T13:21:32.429Z,1.30
2017-08-13T13:24:00.833Z,1.37
2017-08-13T13:26:29.176Z,1.50
2017-08-13T13:28:57.475Z,1.30
2017-08-13T13:31:25.803Z,1.63
2017-08-13T13:33:54.097Z,1.77
2017-08-13T13:36:22.430Z,1.50
2017-08-13T13:38:50.745Z,1.53
2017-08-13T13:41:19.833Z,1.43
2017-08-13T13:43:48.167Z,1.77
2017-08-13T13:46:16.507Z,1.60
2017-08-13T13:48:44.867Z,1.40
2017-08-13T13:51:13.225Z,1.50
2017-08-13T13:53:41.594Z,1.70
2017-08-13T13:56:09.926Z,1.30
2017-08-13T13:58:38.275Z,1.20
2017-08-13T14:01:06.577Z,1.63
2017-08-13T14:03:34.887Z,1.63
2017-08-13T14:06:03.209Z,1.33
2017-08-13T14:08:31.493Z,1.40
2017-08-13T14:10:59.846Z,1.70
2017-08-13T14:13:28.184Z,1.67
2017-08-13T14:15:57.331Z,1.77
2017-08-13T14:18:25.652Z,2.10
2017-08-13T14:20:53.952Z,1.60
2017-08-13T14:23:22.297Z,1.60
2017-08-13T14:25:56.297Z,1.53
2017-08-13T14:28:24.625Z,1.90
2017-08-13T14:30:52.925Z,1.63
2017-08-13T14:33:21.258Z,1.80
2017-08-13T14:35:49.561Z,1.20
2017-08-13T14:38:17.872Z,1.43
2017-08-13T14:40:46.204Z,2.30
2017-08-13T14:43:14.541Z,1.90
2017-08-13T14:45:42.842Z,1.63
2017-08-13T14:48:11.225Z,1.87
2017-08-13T14:50:39.553Z,1.60
2017-08-13T14:53:07.853Z,1.70
2017-08-13T14:55:36.184Z,1.70
2017-08-13T14:58:05.429Z,1.87
2017-08-13T15:00:34.296Z,1.67
2017-08-13T15:03:02.885Z,1.90
2017-08-13T15:05:31.213Z,1.93
2017-08-13T15:07:59.565Z,2.23
2017-08-13T15:10:27.908Z,1.33
2017-08-13T15:12:57.154Z,1.97
2017-08-13T15:15:25.482Z,2.17
2017-08-13T15:17:53.771Z,2.30
2017-08-13T15:20:22.064Z,2.90
2017-08-13T15:22:50.394Z,2.17
2017-08-13T15:25:20.149Z,2.60
2017-08-13T15:27:48.441Z,2.43
2017-08-13T15:30:16.752Z,2.43
2017-08-13T15:32:45.042Z,3.10
2017-08-13T15:35:14.349Z,2.40
2017-08-13T15:37:42.667Z,2.20
2017-08-13T15:40:10.969Z,2.60
2017-08-13T15:42:39.307Z,2.90
2017-08-13T15:45:07.599Z,2.83
2017-08-13T15:47:35.923Z,2.30
2017-08-13T15:50:04.228Z,2.80
2017-08-13T15:52:32.520Z,2.60
2017-08-13T15:55:00.872Z,3.17
2017-08-13T15:57:29.164Z,3.27
2017-08-13T15:59:57.452Z,3.23
2017-08-13T16:02:25.777Z,3.23
2017-08-13T16:04:54.091Z,3.47
2017-08-13T16:07:22.401Z,3.70
2017-08-13T16:09:50.705Z,3.30
2017-08-13T16:12:19.031Z,3.67
2017-08-13T16:14:47.376Z,5.50
2017-08-13T16:17:15.663Z,3.90
2017-08-13T16:19:44.000Z,4.17
2017-08-13T16:22:12.301Z,4.00
2017-08-13T16:24:40.615Z,4.40
2017-08-13T16:27:08.953Z,5.30
2017-08-13T16:29:37.248Z,4.63
2017-08-13T16:32:05.541Z,4.33
2017-08-13T16:34:33.853Z,4.67
2017-08-13T16:37:03.131Z,3.80
2017-08-13T16:39:31.420Z,4.87
2017-08-13T16:41:59.732Z,4.10
2017-08-13T16:44:28.020Z,5.20
2017-08-13T16:46:56.338Z,4.50
2017-08-13T16:49:24.656Z,4.67
2017-08-13T16:51:55.668Z,4.70
2017-08-13T16:54:23.972Z,4.20
2017-08-13T16:56:52.291Z,5.07
2017-08-13T16:59:20.588Z,5.00
2017-08-13T17:01:48.903Z,5.70
2017-08-13T17:04:17.204Z,5.57
2017-08-13T17:06:45.493Z,6.07
2017-08-13T17:09:13.832Z,5.73
2017-08-13T17:11:42.144Z,7.17
2017-08-13T17:14:10.644Z,7.10
2017-08-13T17:16:38.996Z,7.13
2017-08-13T17:19:07.283Z,7.50
2017-08-13T17:21:35.606Z,7.10
2017-08-13T17:24:03.891Z,7.43
2017-08-13T17:26:32.179Z,7.00
2017-08-13T17:29:00.505Z,6.93
2017-08-13T17:31:28.809Z,7.00
2017-08-13T17:33:57.104Z,7.10
2017-08-13T17:36:25.438Z,6.90
2017-08-13T17:38:53.728Z,7.00
2017-08-13T17:41:22.057Z,7.00
2017-08-13T17:43:50.340Z,6.00
2017-08-13T17:46:18.656Z,7.70
2017-08-13T17:48:47.001Z,6.20
2017-08-13T17:51:15.288Z,7.63
2017-08-13T17:53:43.592Z,8.17
2017-08-13T17:56:11.933Z,7.30
2017-08-13T17:58:40.239Z,7.50
2017-08-13T18:01:08.556Z,6.47
2017-08-13T18:03:39.936Z,6.80
2017-08-13T18:06:09.032Z,7.27
2017-08-13T18:08:37.335Z,7.57
2017-08-13T18:11:05.624Z,7.77
2017-08-13T18:13:33.975Z,8.77
2017-08-13T18:16:02.270Z,7.07
2017-08-13T18:18:30.560Z,8.27
2017-08-13T18:20:58.885Z,8.47
2017-08-13T18:23:27.195Z,8.90
2017-08-13T18:25:55.510Z,8.70
2017-08-13T18:28:23.814Z,9.80
2017-08-13T18:30:52.132Z,8.00
2017-08-13T18:33:20.428Z,7.93
2017-08-13T18:35:48.744Z,7.97
2017-08-13T18:38:17.045Z,8.67
2017-08-13T18:40:45.373Z,7.90
2017-08-13T18:43:13.660Z,8.73
2017-08-13T18:45:41.987Z,8.80
2017-08-13T18:48:10.328Z,8.20
2017-08-13T18:50:38.631Z,11.10
2017-08-13T18:53:06.963Z,10.60
2017-08-13T18:55:35.251Z,9.97
2017-08-13T18:58:03.585Z,10.63
2017-08-13T19:00:31.877Z,9.00
2017-08-13T19:03:00.169Z,10.10
2017-08-13T19:05:28.505Z,11.10
2017-08-13T19:07:56.832Z,11.10
2017-08-13T19:10:27.504Z,10.57
2017-08-13T19:12:55.801Z,10.73
2017-08-13T19:15:24.103Z,10.97
2017-08-13T19:17:52.439Z,11.30
2017-08-13T19:20:20.739Z,11.70
2017-08-13T19:22:49.296Z,11.13
2017-08-13T19:25:17.623Z,11.83
2017-08-13T19:27:45.924Z,13.50
2017-08-13T19:30:14.260Z,13.73
2017-08-13T19:32:42.576Z,11.93
2017-08-13T19:35:10.920Z,12.20
2017-08-13T19:37:39.232Z,13.70
2017-08-13T19:40:07.573Z,12.50
2017-08-13T19:42:35.888Z,13.37
2017-08-13T19:45:04.183Z,12.03
2017-08-13T19:47:32.508Z,13.50
2017-08-13T19:50:00.808Z,14.47
2017-08-13T19:52:29.142Z,16.10
2017-08-13T19:54:57.476Z,15.53
2017-08-13T19:57:25.782Z,14.37
2017-08-13T19:59:54.098Z,15.50
2017-08-13T20:02:22.437Z,16.53
2017-08-13T20:04:50.771Z,17.87
2017-08-13T20:07:19.078Z,16.17
2017-08-13T20:09:47.451Z,16.03
2017-08-13T20:12:15.802Z,15.33
2017-08-13T20:14:44.125Z,16.43
2017-08-13T20:17:12.504Z,16.10
2017-08-13T20:19:40.832Z,16.23
2017-08-13T20:22:09.175Z,17.60
2017-08-13T20:24:37.499Z,16.00
2017-08-13T20:27:05.809Z,16.37
2017-08-13T20:29:34.499Z,14.60
2017-08-13T20:32:02.828Z,14.47
2017-08-13T20:34:31.172Z,13.90
2017-08-13T20:36:59.511Z,16.27
2017-08-13T20:39:27.816Z,15.20
2017-08-13T20:41:56.152Z,14.20
2017-08-13T20:44:24.456Z,14.97
2017-08-13T20:46:52.824Z,15.03
2017-08-13T20:49:21.125Z,14.37
2017-08-13T20:51:49.460Z,13.33
2017-08-13T20:54:17.769Z,13.80
2017-08-13T20:56:46.063Z,14.10
2017-08-13T20:59:14.420Z,14.73
2017-08-13T21:01:42.745Z,14.17
2017-08-13T21:04:11.054Z,14.60
2017-08-13T21:06:39.410Z,15.90
2017-08-13T21:09:07.736Z,15.20
2017-08-13T21:11:36.068Z,12.40
2017-08-13T21:14:04.371Z,14.53
2017-08-13T21:16:32.673Z,13.07
2017-08-13T21:19:01.018Z,14.73
2017-08-13T21:21:29.350Z,14.33
2017-08-13T21:23:57.649Z,15.57
2017-08-13T21:26:25.955Z,14.27
2017-08-13T21:28:54.761Z,13.97
2017-08-13T21:31:23.072Z,16.63
2017-08-13T21:33:51.395Z,15.30
2017-08-13T21:36:19.694Z,13.17
2017-08-13T21:38:47.997Z,13.47
2017-08-13T21:41:16.340Z,12.83
2017-08-13T21:43:44.648Z,13.80
2017-08-13T21:46:12.989Z,15.07
2017-08-13T21:48:42.610Z,15.37
2017-08-13T21:51:12.341Z,14.87
2017-08-13T21:53:41.603Z,14.57
2017-08-13T21:56:09.902Z,15.53
2017-08-13T21:58:38.243Z,16.83
2017-08-13T22:01:06.540Z,18.93
2017-08-13T22:03:39.677Z,20.33
2017-08-13T22:06:07.974Z,20.00
2017-08-13T22:08:36.305Z,18.50
2017-08-13T22:11:04.628Z,17.30
2017-08-13T22:13:32.944Z,17.17
2017-08-13T22:16:01.274Z,16.03
2017-08-13T22:18:29.574Z,14.27
2017-08-13T22:20:57.906Z,14.73
2017-08-13T22:23:26.204Z,15.70
2017-08-13T22:25:54.504Z,14.30
2017-08-13T22:28:22.837Z,16.70
2017-08-13T22:30:51.124Z,16.00
2017-08-13T22:33:19.432Z,15.47
2017-08-13T22:35:47.756Z,14.70
2017-08-13T22:38:16.064Z,16.10
2017-08-13T22:40:44.368Z,15.90
2017-08-13T22:43:12.719Z,16.07
2017-08-13T22:45:41.112Z,14.57
2017-08-13T22:48:09.419Z,14.17
2017-08-13T22:50:37.716Z,16.70
2017-08-13T22:53:07.048Z,15.30
2017-08-13T22:55:35.343Z,13.77
2017-08-13T22:58:03.676Z,15.87
2017-08-13T23:00:32.027Z,16.67
2017-08-13T23:03:00.334Z,14.00
2017-08-13T23:05:28.660Z,13.67
2017-08-13T23:07:57.024Z,12.97
2017-08-13T23:10:25.350Z,14.80
2017-08-13T23:12:53.652Z,16.27
2017-08-13T23:15:21.956Z,15.53
2017-08-13T23:17:50.287Z,17.03
2017-08-13T23:20:18.587Z,19.90
2017-08-13T23:22:46.919Z,18.40
2017-08-13T23:25:15.229Z,18.57
2017-08-13T23:27:43.540Z,20.33
2017-08-13T23:30:11.875Z,19.83
2017-08-13T23:32:40.211Z,20.10
2017-08-13T23:35:08.526Z,17.40
2017-08-13T23:37:36.825Z,18.70
2017-08-13T23:40:05.156Z,16.60
2017-08-13T23:42:33.465Z,16.20
2017-08-13T23:45:01.784Z,18.43
2017-08-13T23:47:30.108Z,18.57
2017-08-13T23:49:58.435Z,21.00
2017-08-13T23:52:26.751Z,20.10
2017-08-13T23:54:55.089Z,17.30
2017-08-13T23:57:23.384Z,16.93
2017-08-13T23:59:51.684Z,20.70
